Time;durP1;ratioP1;P1;durP2;ratioP2;P2;SDS_P1;SDS_P2;PMS_P1;PMS_P2;Temp;Humidity;BMP_temperature;BMP_pressure;BME280_temperature;BME280_humidity;BME280_pressure;Samples;Min_cycle;Max_cycle;Signal;HPM_P1;HPM_P2
2023/05/30 00:01:18;;;;;;;20.00;5.80;;;;;;;;;;5030492;28;20488;-61
2023/05/30 00:03:47;;;;;;;27.90;7.00;;;;;;;;;;5028704;28;20053;-61
2023/05/30 00:06:14;;;;;;;16.73;5.63;;;;;;;;;;5030328;28;20048;-61
2023/05/30 00:08:40;;;;;;;26.97;6.10;;;;;;;;;;5030195;28;20052;-61
2023/05/30 00:11:06;;;;;;;34.27;7.10;;;;;;;;;;5029966;28;20187;-61
2023/05/30 00:13:33;;;;;;;20.67;6.10;;;;;;;;;;5030413;28;20452;-61
2023/05/30 00:16:00;;;;;;;23.03;8.10;;;;;;;;;;5030003;28;20049;-61
2023/05/30 00:18:34;;;;;;;22.03;7.40;;;;;;;;;;5037312;28;20127;-61
2023/05/30 00:21:02;;;;;;;19.30;6.00;;;;;;;;;;5050013;28;20045;-61
2023/05/30 00:23:28;;;;;;;18.57;7.00;;;;;;;;;;5049649;28;20048;-61
2023/05/30 00:25:55;;;;;;;29.33;6.80;;;;;;;;;;5049196;28;20451;-61
2023/05/30 00:28:22;;;;;;;19.00;5.90;;;;;;;;;;5049553;28;20491;-61
2023/05/30 00:30:48;;;;;;;26.73;6.77;;;;;;;;;;5049855;28;20048;-61
2023/05/30 00:33:14;;;;;;;22.23;6.40;;;;;;;;;;5031941;28;20065;-61
2023/05/30 00:35:40;;;;;;;23.03;5.77;;;;;;;;;;5029326;28;20482;-61
2023/05/30 00:38:07;;;;;;;19.40;5.53;;;;;;;;;;5029700;28;20041;-61
2023/05/30 00:40:33;;;;;;;16.53;5.20;;;;;;;;;;5029034;28;20102;-61
2023/05/30 00:42:59;;;;;;;19.90;5.27;;;;;;;;;;5029732;28;20053;-61
2023/05/30 00:45:25;;;;;;;20.17;6.40;;;;;;;;;;5029579;28;20041;-61
2023/05/30 00:47:53;;;;;;;18.77;5.00;;;;;;;;;;5031648;28;20103;-61
2023/05/30 00:50:19;;;;;;;16.37;4.70;;;;;;;;;;5048780;28;20049;-61
2023/05/30 00:52:46;;;;;;;19.23;5.00;;;;;;;;;;5049408;28;20044;-61
2023/05/30 00:55:12;;;;;;;17.07;5.37;;;;;;;;;;5049283;28;20124;-61
2023/05/30 00:57:39;;;;;;;20.27;4.53;;;;;;;;;;5048909;28;20060;-61
2023/05/30 01:00:06;;;;;;;17.60;5.53;;;;;;;;;;5049065;28;20405;-61
2023/05/30 01:02:35;;;;;;;18.17;5.47;;;;;;;;;;5048651;28;20563;-61
2023/05/30 01:05:02;;;;;;;18.30;5.40;;;;;;;;;;5048930;28;20048;-61
2023/05/30 01:07:28;;;;;;;17.43;4.80;;;;;;;;;;5048942;28;20044;-61
2023/05/30 01:09:54;;;;;;;16.10;4.63;;;;;;;;;;5049443;28;20554;-61
2023/05/30 01:12:33;;;;;;;20.50;5.80;;;;;;;;;;5048923;28;20048;-61
2023/05/30 01:15:08;;;;;;;18.60;5.53;;;;;;;;;;5049574;28;20057;-61
2023/05/30 01:17:44;;;;;;;13.00;5.17;;;;;;;;;;5047925;28;20060;-61
2023/05/30 01:20:17;;;;;;;16.97;5.00;;;;;;;;;;5028907;28;20053;-61
2023/05/30 01:22:55;;;;;;;17.83;5.27;;;;;;;;;;5029489;28;20124;-61
2023/05/30 01:25:40;;;;;;;12.63;4.87;;;;;;;;;;5028922;28;20045;-61
2023/05/30 01:28:09;;;;;;;18.80;5.17;;;;;;;;;;5029678;28;20141;-61
2023/05/30 01:31:02;;;;;;;14.87;4.63;;;;;;;;;;5031896;28;20053;-62
2023/05/30 01:33:28;;;;;;;15.57;5.27;;;;;;;;;;5035696;28;20041;-61
2023/05/30 01:35:54;;;;;;;18.43;5.43;;;;;;;;;;5043471;28;20049;-61
2023/05/30 01:38:21;;;;;;;18.83;5.17;;;;;;;;;;5048962;28;20076;-61
2023/05/30 01:40:52;;;;;;;13.83;5.50;;;;;;;;;;5049086;28;20075;-61
2023/05/30 01:43:24;;;;;;;15.43;5.70;;;;;;;;;;5048210;28;20143;-61
2023/05/30 01:46:02;;;;;;;10.97;4.87;;;;;;;;;;5049096;28;20053;-61
2023/05/30 01:48:28;;;;;;;19.17;5.87;;;;;;;;;;5048241;28;20083;-61
2023/05/30 01:50:55;;;;;;;16.27;4.83;;;;;;;;;;5048763;28;20817;-61
2023/05/30 01:53:31;;;;;;;13.80;5.30;;;;;;;;;;5048888;28;20098;-61
2023/05/30 01:55:58;;;;;;;13.40;5.33;;;;;;;;;;5048104;28;20051;-61
2023/05/30 01:58:25;;;;;;;16.73;5.20;;;;;;;;;;5048908;28;20049;-61
2023/05/30 02:00:52;;;;;;;17.03;5.57;;;;;;;;;;5048669;28;20483;-61
2023/05/30 02:03:18;;;;;;;14.03;5.00;;;;;;;;;;5049034;28;20158;-61
2023/05/30 02:05:44;;;;;;;14.53;5.20;;;;;;;;;;5050212;28;20055;-61
2023/05/30 02:08:10;;;;;;;15.77;5.13;;;;;;;;;;5052387;28;20041;-61
2023/05/30 02:10:36;;;;;;;14.10;4.20;;;;;;;;;;5052543;28;20059;-61
2023/05/30 02:13:02;;;;;;;13.93;4.47;;;;;;;;;;5053068;28;20048;-61
2023/05/30 02:15:28;;;;;;;13.63;4.20;;;;;;;;;;5052686;28;20052;-61
2023/05/30 02:17:54;;;;;;;13.20;4.30;;;;;;;;;;5032309;28;20555;-61
2023/05/30 02:20:20;;;;;;;12.50;4.10;;;;;;;;;;5032951;28;20049;-61
2023/05/30 02:22:46;;;;;;;12.40;4.47;;;;;;;;;;5032552;28;20495;-61
2023/05/30 02:25:13;;;;;;;14.50;4.70;;;;;;;;;;5032841;28;20049;-61
2023/05/30 02:27:39;;;;;;;13.70;4.20;;;;;;;;;;5032260;28;20496;-61
2023/05/30 02:30:05;;;;;;;18.90;4.70;;;;;;;;;;5032657;28;20079;-61
2023/05/30 02:32:31;;;;;;;16.60;4.53;;;;;;;;;;5031868;28;20480;-61
2023/05/30 02:34:57;;;;;;;16.23;4.40;;;;;;;;;;5032267;28;20512;-61
2023/05/30 02:37:23;;;;;;;10.77;3.63;;;;;;;;;;5032471;28;21151;-61
2023/05/30 02:39:49;;;;;;;14.80;4.50;;;;;;;;;;5032234;28;20041;-61
2023/05/30 02:42:15;;;;;;;14.07;4.10;;;;;;;;;;5044545;28;20041;-61
2023/05/30 02:44:41;;;;;;;16.33;4.20;;;;;;;;;;5052241;28;20090;-61
2023/05/30 02:47:08;;;;;;;10.83;3.53;;;;;;;;;;5038602;28;20037;-61
2023/05/30 02:49:35;;;;;;;12.07;3.67;;;;;;;;;;5031893;28;20049;-61
2023/05/30 02:52:01;;;;;;;12.60;4.13;;;;;;;;;;5031942;28;20065;-61
2023/05/30 02:54:27;;;;;;;14.17;4.40;;;;;;;;;;5031822;28;20049;-61
2023/05/30 02:56:53;;;;;;;9.83;3.73;;;;;;;;;;5032040;28;20628;-61
2023/05/30 02:59:19;;;;;;;8.53;3.50;;;;;;;;;;5032056;28;20046;-61
2023/05/30 03:01:45;;;;;;;16.37;4.40;;;;;;;;;;5031821;28;20163;-61
2023/05/30 03:04:12;;;;;;;13.67;5.07;;;;;;;;;;5032111;28;20124;-62
2023/05/30 03:06:38;;;;;;;14.93;4.80;;;;;;;;;;5031269;28;20053;-61
2023/05/30 03:09:04;;;;;;;12.20;3.70;;;;;;;;;;5031971;28;20614;-61
2023/05/30 03:11:30;;;;;;;11.80;3.07;;;;;;;;;;5031998;28;20060;-61
2023/05/30 03:13:56;;;;;;;18.00;4.37;;;;;;;;;;5030859;28;20041;-61
2023/05/30 03:16:22;;;;;;;14.83;4.40;;;;;;;;;;5030738;28;20415;-61
2023/05/30 03:18:49;;;;;;;15.10;3.70;;;;;;;;;;5039631;28;20045;-61
2023/05/30 03:21:15;;;;;;;13.40;4.07;;;;;;;;;;5050791;28;20526;-61
2023/05/30 03:23:41;;;;;;;9.87;3.90;;;;;;;;;;5051580;28;20107;-61
2023/05/30 03:26:08;;;;;;;12.53;4.17;;;;;;;;;;5050874;28;20084;-61
2023/05/30 03:28:34;;;;;;;13.90;4.67;;;;;;;;;;5051310;28;20491;-61
2023/05/30 03:31:00;;;;;;;13.17;4.03;;;;;;;;;;5050805;28;20569;-61
2023/05/30 03:33:28;;;;;;;14.20;4.13;;;;;;;;;;5050918;28;20091;-61
2023/05/30 03:35:54;;;;;;;11.23;4.03;;;;;;;;;;5050857;28;20053;-61
2023/05/30 03:38:21;;;;;;;15.00;5.03;;;;;;;;;;5050531;28;20053;-61
2023/05/30 03:40:47;;;;;;;13.07;3.80;;;;;;;;;;5047431;28;20099;-62
2023/05/30 03:43:13;;;;;;;12.67;4.30;;;;;;;;;;5030662;28;20095;-62
2023/05/30 03:45:39;;;;;;;14.10;4.10;;;;;;;;;;5029990;28;20049;-61
2023/05/30 03:48:05;;;;;;;17.00;5.13;;;;;;;;;;5050516;28;20609;-61
2023/05/30 03:50:31;;;;;;;13.30;4.90;;;;;;;;;;5050350;28;20578;-61
2023/05/30 03:52:57;;;;;;;10.87;4.43;;;;;;;;;;5050767;28;20563;-61
2023/05/30 03:55:23;;;;;;;13.80;4.60;;;;;;;;;;5050024;28;20159;-61
2023/05/30 03:57:49;;;;;;;16.93;5.13;;;;;;;;;;5050115;28;20091;-62
2023/05/30 04:00:16;;;;;;;14.10;5.10;;;;;;;;;;5049389;28;20037;-61
2023/05/30 04:02:42;;;;;;;16.47;4.60;;;;;;;;;;5049874;28;20461;-61
2023/05/30 04:05:08;;;;;;;15.77;4.63;;;;;;;;;;5049454;28;20037;-61
2023/05/30 04:07:36;;;;;;;16.67;5.27;;;;;;;;;;5049227;28;20099;-61
2023/05/30 04:10:05;;;;;;;13.63;4.83;;;;;;;;;;5049437;28;20053;-61
2023/05/30 04:12:31;;;;;;;11.87;4.47;;;;;;;;;;5049564;28;20041;-61
2023/05/30 04:14:57;;;;;;;14.77;5.07;;;;;;;;;;5049715;28;20049;-61
2023/05/30 04:17:24;;;;;;;19.60;5.27;;;;;;;;;;5049584;28;20060;-61
2023/05/30 04:19:52;;;;;;;11.20;4.30;;;;;;;;;;5048950;28;20056;-61
2023/05/30 04:22:18;;;;;;;15.00;5.20;;;;;;;;;;5049601;28;20483;-61
2023/05/30 04:24:45;;;;;;;12.83;4.80;;;;;;;;;;5049188;28;20057;-61
2023/05/30 04:27:13;;;;;;;11.77;4.40;;;;;;;;;;5049604;28;20076;-62
2023/05/30 04:29:40;;;;;;;12.43;5.43;;;;;;;;;;5048681;28;20100;-61
2023/05/30 04:32:06;;;;;;;16.70;4.80;;;;;;;;;;5048881;28;20057;-61
2023/05/30 04:34:34;;;;;;;15.47;4.87;;;;;;;;;;5049337;28;20392;-61
2023/05/30 04:37:01;;;;;;;13.97;4.50;;;;;;;;;;5034023;28;20060;-61
2023/05/30 04:39:27;;;;;;;21.27;5.57;;;;;;;;;;5028686;28;20091;-62
2023/05/30 04:41:54;;;;;;;19.47;5.20;;;;;;;;;;5028915;28;20332;-62
2023/05/30 04:44:22;;;;;;;19.67;4.17;;;;;;;;;;5029051;28;20630;-61
2023/05/30 04:46:48;;;;;;;13.87;4.67;;;;;;;;;;5028698;28;20420;-61
2023/05/30 04:49:14;;;;;;;14.30;4.37;;;;;;;;;;5028632;28;20053;-61
2023/05/30 04:51:40;;;;;;;10.73;3.53;;;;;;;;;;5047879;28;20086;-62
2023/05/30 04:54:07;;;;;;;15.13;4.27;;;;;;;;;;5048660;28;20132;-61
2023/05/30 04:56:33;;;;;;;15.70;3.90;;;;;;;;;;5049502;28;20114;-62
2023/05/30 04:58:59;;;;;;;14.33;4.47;;;;;;;;;;5049799;28;20041;-61
2023/05/30 05:01:25;;;;;;;16.90;4.27;;;;;;;;;;5049363;28;20045;-62
2023/05/30 05:03:51;;;;;;;11.40;4.03;;;;;;;;;;5048757;28;20053;-62
2023/05/30 05:06:17;;;;;;;15.33;3.67;;;;;;;;;;5048128;28;20079;-62
2023/05/30 05:08:43;;;;;;;14.83;4.00;;;;;;;;;;5033195;28;20095;-61
2023/05/30 05:11:09;;;;;;;17.57;3.93;;;;;;;;;;5028301;28;20053;-62
2023/05/30 05:13:36;;;;;;;17.30;3.73;;;;;;;;;;5028759;28;20052;-62
2023/05/30 05:16:04;;;;;;;17.37;4.63;;;;;;;;;;5028478;28;20112;-62
2023/05/30 05:18:30;;;;;;;19.83;4.10;;;;;;;;;;5028465;28;20057;-61
2023/05/30 05:20:56;;;;;;;14.10;3.80;;;;;;;;;;5028246;28;20041;-62
2023/05/30 05:23:23;;;;;;;17.70;4.17;;;;;;;;;;5028576;28;20042;-62
2023/05/30 05:25:49;;;;;;;13.20;3.93;;;;;;;;;;5028212;28;20053;-62
2023/05/30 05:28:15;;;;;;;12.43;4.43;;;;;;;;;;5029013;28;20391;-62
2023/05/30 05:30:41;;;;;;;16.33;4.70;;;;;;;;;;5034616;28;20037;-62
2023/05/30 05:33:08;;;;;;;9.93;3.73;;;;;;;;;;5044817;28;20076;-62
2023/05/30 05:35:34;;;;;;;9.83;3.20;;;;;;;;;;5027953;28;20053;-62
2023/05/30 05:38:01;;;;;;;17.10;3.97;;;;;;;;;;5028100;28;20478;-62
2023/05/30 05:40:27;;;;;;;10.60;3.47;;;;;;;;;;5026889;28;20107;-62
2023/05/30 05:42:53;;;;;;;13.97;4.03;;;;;;;;;;5031521;28;20060;-62
2023/05/30 05:45:19;;;;;;;16.10;3.73;;;;;;;;;;5035806;28;20042;-62
2023/05/30 05:47:45;;;;;;;14.60;3.37;;;;;;;;;;5028554;28;20457;-62
2023/05/30 05:50:11;;;;;;;18.17;3.93;;;;;;;;;;5035322;28;20466;-62
2023/05/30 05:52:37;;;;;;;10.67;3.20;;;;;;;;;;5027820;28;20041;-62
2023/05/30 05:55:03;;;;;;;11.20;3.27;;;;;;;;;;5029667;28;20041;-62
2023/05/30 05:57:29;;;;;;;16.70;3.70;;;;;;;;;;5047563;28;20053;-62
2023/05/30 05:59:55;;;;;;;11.60;3.30;;;;;;;;;;5047930;28;20095;-62
2023/05/30 06:02:21;;;;;;;11.30;3.43;;;;;;;;;;5048060;28;20588;-62
2023/05/30 06:04:47;;;;;;;11.87;3.70;;;;;;;;;;5046355;28;20400;-62
2023/05/30 06:07:14;;;;;;;11.13;3.53;;;;;;;;;;5034174;28;20049;-62
2023/05/30 06:09:40;;;;;;;11.90;3.00;;;;;;;;;;5039873;28;20076;-62
2023/05/30 06:12:07;;;;;;;16.10;3.43;;;;;;;;;;5042602;28;20052;-62
2023/05/30 06:14:33;;;;;;;11.43;3.10;;;;;;;;;;5046893;28;20049;-62
2023/05/30 06:16:59;;;;;;;16.10;3.43;;;;;;;;;;5027520;28;20530;-62
2023/05/30 06:19:25;;;;;;;12.33;3.17;;;;;;;;;;5034877;28;20049;-62
2023/05/30 06:21:51;;;;;;;12.80;3.23;;;;;;;;;;5047952;28;20106;-62
2023/05/30 06:24:17;;;;;;;11.83;3.17;;;;;;;;;;5047441;28;20053;-62
2023/05/30 06:26:43;;;;;;;13.43;3.30;;;;;;;;;;5037326;28;20052;-62
2023/05/30 06:29:10;;;;;;;13.47;3.83;;;;;;;;;;5061466;28;20044;-62
2023/05/30 06:31:36;;;;;;;12.87;3.77;;;;;;;;;;5047319;28;20053;-62
2023/05/30 06:34:02;;;;;;;13.27;3.20;;;;;;;;;;5047637;28;20148;-62
2023/05/30 06:36:28;;;;;;;12.30;3.67;;;;;;;;;;5045110;28;20442;-62
2023/05/30 06:38:54;;;;;;;13.40;3.43;;;;;;;;;;5043404;28;20041;-62
2023/05/30 06:41:22;;;;;;;11.83;3.00;;;;;;;;;;5028063;28;20503;-62
2023/05/30 06:43:48;;;;;;;12.40;3.50;;;;;;;;;;5027165;28;20080;-62
2023/05/30 06:46:14;;;;;;;11.77;3.50;;;;;;;;;;5038295;28;20060;-61
2023/05/30 06:48:40;;;;;;;9.57;2.97;;;;;;;;;;5035935;28;20047;-62
2023/05/30 06:51:07;;;;;;;8.73;3.00;;;;;;;;;;5042734;28;20076;-62
2023/05/30 06:53:35;;;;;;;13.00;3.57;;;;;;;;;;5040099;28;20053;-62
2023/05/30 06:56:01;;;;;;;9.60;3.00;;;;;;;;;;5030933;28;20385;-62
2023/05/30 06:58:27;;;;;;;14.00;3.30;;;;;;;;;;5043241;28;20440;-62
2023/05/30 07:00:53;;;;;;;13.70;2.70;;;;;;;;;;5032246;28;20099;-62
2023/05/30 07:03:19;;;;;;;7.27;2.30;;;;;;;;;;5049205;28;20045;-62
2023/05/30 07:05:45;;;;;;;8.27;2.87;;;;;;;;;;5050596;28;20045;-62
2023/05/30 07:08:11;;;;;;;9.87;2.40;;;;;;;;;;5050861;28;20454;-61
2023/05/30 07:10:37;;;;;;;11.53;3.57;;;;;;;;;;5050729;28;20037;-62
2023/05/30 07:13:03;;;;;;;19.80;4.00;;;;;;;;;;5048445;28;20380;-61
2023/05/30 07:15:31;;;;;;;15.30;3.63;;;;;;;;;;5030433;28;20056;-61
2023/05/30 07:17:57;;;;;;;11.37;2.80;;;;;;;;;;5038375;28;20083;-62
2023/05/30 07:20:23;;;;;;;15.33;3.43;;;;;;;;;;5035955;28;20064;-61
2023/05/30 07:22:52;;;;;;;26.10;5.20;;;;;;;;;;5039420;28;20058;-62
2023/05/30 07:25:18;;;;;;;8.93;3.30;;;;;;;;;;5030257;28;20045;-62
2023/05/30 07:27:45;;;;;;;8.83;2.70;;;;;;;;;;5030614;28;20052;-61
2023/05/30 07:30:12;;;;;;;13.67;3.43;;;;;;;;;;5030459;28;20054;-62
2023/05/30 07:32:38;;;;;;;13.07;3.50;;;;;;;;;;5030932;28;20049;-61
2023/05/30 07:35:04;;;;;;;9.33;2.47;;;;;;;;;;5030954;28;20049;-62
2023/05/30 07:37:30;;;;;;;10.90;2.73;;;;;;;;;;5030649;28;20431;-60
2023/05/30 07:39:56;;;;;;;8.30;2.17;;;;;;;;;;5032091;28;20041;-60
2023/05/30 07:42:22;;;;;;;10.40;2.47;;;;;;;;;;5034472;28;20045;-60
2023/05/30 07:44:48;;;;;;;6.93;2.50;;;;;;;;;;5044749;28;20805;-60
2023/05/30 07:47:14;;;;;;;6.83;1.97;;;;;;;;;;5043083;28;20044;-60
2023/05/30 07:49:42;;;;;;;7.87;2.77;;;;;;;;;;5050593;28;20110;-60
2023/05/30 07:52:09;;;;;;;6.40;2.20;;;;;;;;;;5031098;28;20053;-59
2023/05/30 07:54:35;;;;;;;7.70;2.57;;;;;;;;;;5030908;28;20048;-59
2023/05/30 07:57:01;;;;;;;10.07;2.43;;;;;;;;;;5030884;28;20053;-59
2023/05/30 07:59:27;;;;;;;7.83;2.50;;;;;;;;;;5030579;28;20100;-59
2023/05/30 08:01:53;;;;;;;10.27;2.70;;;;;;;;;;5037333;28;20045;-60
2023/05/30 08:04:20;;;;;;;9.30;2.53;;;;;;;;;;5030587;28;20090;-59
2023/05/30 08:06:46;;;;;;;8.37;2.37;;;;;;;;;;5030479;28;20049;-60
2023/05/30 08:09:12;;;;;;;8.30;2.50;;;;;;;;;;5051766;28;20051;-59
2023/05/30 08:11:38;;;;;;;7.70;2.07;;;;;;;;;;5057327;28;20041;-59
2023/05/30 08:14:04;;;;;;;6.50;2.70;;;;;;;;;;5055399;28;20095;-59
2023/05/30 08:16:32;;;;;;;8.67;2.47;;;;;;;;;;5058084;28;20048;-62
2023/05/30 08:18:58;;;;;;;5.63;2.67;;;;;;;;;;5051929;28;20111;-62
2023/05/30 08:21:24;;;;;;;10.63;2.67;;;;;;;;;;5059351;28;20151;-61
2023/05/30 08:23:51;;;;;;;8.37;2.77;;;;;;;;;;5057605;28;20155;-62
2023/05/30 08:26:18;;;;;;;9.77;3.10;;;;;;;;;;5054536;28;20049;-62
2023/05/30 08:28:45;;;;;;;6.73;3.03;;;;;;;;;;5047876;28;20071;-62
2023/05/30 08:31:11;;;;;;;7.83;2.57;;;;;;;;;;5048190;28;20080;-62
2023/05/30 08:33:37;;;;;;;11.03;2.60;;;;;;;;;;5049081;28;20044;-61
2023/05/30 08:36:03;;;;;;;7.77;2.67;;;;;;;;;;5047157;28;20048;-62
2023/05/30 08:38:29;;;;;;;10.23;2.60;;;;;;;;;;5047767;28;20045;-62
2023/05/30 08:40:55;;;;;;;7.57;2.70;;;;;;;;;;5048860;28;20045;-62
2023/05/30 08:43:21;;;;;;;8.03;2.30;;;;;;;;;;5048903;28;20045;-62
2023/05/30 08:45:47;;;;;;;7.57;2.20;;;;;;;;;;5048752;28;20045;-62
2023/05/30 08:48:14;;;;;;;6.53;2.30;;;;;;;;;;5049053;28;20099;-62
2023/05/30 08:50:41;;;;;;;5.50;2.03;;;;;;;;;;5048216;28;20049;-62
2023/05/30 08:53:08;;;;;;;5.03;1.87;;;;;;;;;;5048652;28;20491;-62
2023/05/30 08:55:57;;;;;;;5.20;2.30;;;;;;;;;;5048808;28;20127;-60
2023/05/30 08:58:26;;;;;;;5.87;1.63;;;;;;;;;;5039340;28;20041;-59
2023/05/30 09:00:53;;;;;;;4.50;1.47;;;;;;;;;;5048155;28;20041;-60
2023/05/30 09:03:20;;;;;;;5.97;1.80;;;;;;;;;;5048585;28;20049;-60
2023/05/30 09:05:46;;;;;;;9.10;2.43;;;;;;;;;;5048604;28;20041;-60
2023/05/30 09:08:15;;;;;;;6.90;2.57;;;;;;;;;;5048724;28;20481;-60
2023/05/30 09:10:47;;;;;;;8.07;2.70;;;;;;;;;;5047836;28;20507;-60
2023/05/30 09:13:14;;;;;;;5.95;2.10;;;;;;;;;;5048187;28;20060;-60
2023/05/30 09:15:40;;;;;;;6.43;1.70;;;;;;;;;;5047336;28;20490;-60
2023/05/30 09:18:06;;;;;;;5.50;1.73;;;;;;;;;;5048541;28;20490;-60
2023/05/30 09:20:32;;;;;;;6.07;1.40;;;;;;;;;;5047434;28;20048;-60
2023/05/30 09:23:01;;;;;;;7.83;2.90;;;;;;;;;;5048605;28;20059;-60
2023/05/30 09:25:40;;;;;;;4.17;1.50;;;;;;;;;;5048218;28;20048;-60
2023/05/30 09:28:06;;;;;;;4.27;1.50;;;;;;;;;;5048164;28;20068;-60
2023/05/30 09:30:32;;;;;;;3.97;1.47;;;;;;;;;;5047856;28;20037;-60
2023/05/30 09:33:02;;;;;;;6.57;1.60;;;;;;;;;;5047412;28;20092;-60
2023/05/30 09:35:28;;;;;;;3.03;1.50;;;;;;;;;;5048263;28;20080;-60
2023/05/30 09:37:54;;;;;;;5.77;1.40;;;;;;;;;;5047751;28;20048;-60
2023/05/30 09:40:20;;;;;;;4.23;1.57;;;;;;;;;;5047974;28;20040;-60
2023/05/30 09:42:47;;;;;;;2.87;1.00;;;;;;;;;;5047942;28;20547;-60
2023/05/30 09:45:14;;;;;;;2.50;1.23;;;;;;;;;;5047398;28;20132;-60
2023/05/30 09:47:44;;;;;;;4.90;1.33;;;;;;;;;;5047848;28;20049;-60
2023/05/30 09:50:14;;;;;;;3.90;1.27;;;;;;;;;;5047512;28;20526;-60
2023/05/30 09:52:41;;;;;;;3.07;1.33;;;;;;;;;;5047791;28;20495;-60
2023/05/30 09:55:07;;;;;;;2.93;1.50;;;;;;;;;;5047899;28;20041;-62
2023/05/30 09:57:35;;;;;;;6.40;2.17;;;;;;;;;;5047536;28;20048;-60
2023/05/30 10:00:04;;;;;;;5.03;1.60;;;;;;;;;;5047425;28;20107;-60
2023/05/30 10:02:30;;;;;;;4.13;1.80;;;;;;;;;;5047726;28;20091;-60
2023/05/30 10:04:56;;;;;;;6.33;2.43;;;;;;;;;;5047492;28;20503;-60
2023/05/30 10:07:22;;;;;;;4.00;1.80;;;;;;;;;;5047468;28;20207;-60
2023/05/30 10:09:52;;;;;;;4.40;1.83;;;;;;;;;;5047542;28;20127;-60
2023/05/30 10:12:18;;;;;;;3.33;1.60;;;;;;;;;;5047696;28;20041;-60
2023/05/30 10:14:44;;;;;;;2.83;1.53;;;;;;;;;;5047248;28;20598;-60
2023/05/30 10:17:15;;;;;;;5.13;1.87;;;;;;;;;;5047571;28;20720;-60
2023/05/30 10:19:52;;;;;;;4.97;2.23;;;;;;;;;;5047591;28;20041;-60
2023/05/30 10:22:19;;;;;;;3.90;1.60;;;;;;;;;;5047609;28;20102;-60
2023/05/30 10:24:47;;;;;;;6.17;1.93;;;;;;;;;;5047138;28;20041;-60
2023/05/30 10:27:18;;;;;;;2.57;1.23;;;;;;;;;;5049366;28;20171;-60
2023/05/30 10:29:47;;;;;;;6.70;2.77;;;;;;;;;;5051307;28;20610;-60
2023/05/30 10:32:19;;;;;;;7.53;2.00;;;;;;;;;;5050969;28;20049;-60
2023/05/30 10:35:05;;;;;;;8.00;2.40;;;;;;;;;;5051351;28;20052;-60
2023/05/30 10:37:31;;;;;;;4.57;1.90;;;;;;;;;;5050703;28;20057;-60
2023/05/30 10:40:01;;;;;;;2.80;1.70;;;;;;;;;;5051252;28;20047;-60
2023/05/30 10:42:35;;;;;;;12.27;5.10;;;;;;;;;;5051175;28;20124;-60
2023/05/30 10:45:17;;;;;;;4.10;1.83;;;;;;;;;;5051057;28;20041;-60
2023/05/30 10:47:59;;;;;;;4.27;1.93;;;;;;;;;;5050416;28;20041;-60
2023/05/30 10:50:32;;;;;;;5.47;2.03;;;;;;;;;;5051085;28;20088;-60
2023/05/30 10:52:58;;;;;;;6.25;2.17;;;;;;;;;;5050901;28;20392;-60
2023/05/30 10:55:25;;;;;;;5.20;2.20;;;;;;;;;;5050919;28;20508;-60
2023/05/30 10:57:51;;;;;;;4.80;1.80;;;;;;;;;;5050702;28;21172;-62
2023/05/30 11:00:18;;;;;;;4.57;1.60;;;;;;;;;;5050397;28;20514;-62
2023/05/30 11:02:49;;;;;;;5.23;1.83;;;;;;;;;;5050786;28;20436;-62
2023/05/30 11:05:18;;;;;;;4.00;1.80;;;;;;;;;;5050792;28;20048;-62
2023/05/30 11:07:44;;;;;;;4.70;1.77;;;;;;;;;;5050670;28;20041;-62
2023/05/30 11:10:11;;;;;;;7.07;2.57;;;;;;;;;;5051004;28;20060;-60
2023/05/30 11:12:43;;;;;;;4.57;1.97;;;;;;;;;;5049197;28;20045;-61
2023/05/30 11:15:09;;;;;;;6.17;1.90;;;;;;;;;;5050072;28;20052;-60
2023/05/30 11:17:36;;;;;;;4.20;1.80;;;;;;;;;;5050150;28;20045;-60
2023/05/30 11:20:14;;;;;;;4.10;2.30;;;;;;;;;;5050540;28;20103;-60
2023/05/30 11:22:41;;;;;;;2.33;1.53;;;;;;;;;;5049186;28;20048;-60
2023/05/30 11:25:19;;;;;;;2.63;1.40;;;;;;;;;;5050516;28;20087;-60
2023/05/30 11:28:03;;;;;;;2.60;1.10;;;;;;;;;;5050327;28;20419;-60
2023/05/30 11:30:30;;;;;;;3.27;1.00;;;;;;;;;;5050606;28;20045;-60
2023/05/30 11:32:58;;;;;;;6.40;2.23;;;;;;;;;;5049725;28;20078;-60
2023/05/30 11:35:25;;;;;;;3.33;1.10;;;;;;;;;;5050260;28;20037;-60
2023/05/30 11:37:51;;;;;;;11.30;1.30;;;;;;;;;;5049185;28;20084;-60
2023/05/30 11:40:21;;;;;;;4.00;1.30;;;;;;;;;;5049699;28;20056;-60
2023/05/30 11:42:50;;;;;;;1.63;1.00;;;;;;;;;;5050209;28;20037;-60
2023/05/30 11:45:16;;;;;;;1.83;0.90;;;;;;;;;;5049851;28;20075;-60
2023/05/30 11:47:46;;;;;;;1.80;0.90;;;;;;;;;;5049975;28;20041;-60
2023/05/30 11:50:12;;;;;;;3.43;1.50;;;;;;;;;;5049634;28;20064;-60
2023/05/30 11:52:39;;;;;;;3.33;1.20;;;;;;;;;;5050055;28;20048;-60
2023/05/30 11:55:05;;;;;;;2.30;1.00;;;;;;;;;;5049988;28;20047;-60
2023/05/30 11:57:31;;;;;;;2.10;0.83;;;;;;;;;;5049641;28;20534;-60
2023/05/30 11:59:58;;;;;;;3.40;1.07;;;;;;;;;;5049073;28;20417;-60
2023/05/30 12:02:28;;;;;;;2.23;0.90;;;;;;;;;;5049895;28;20166;-60
2023/05/30 12:05:03;;;;;;;2.07;0.80;;;;;;;;;;5049796;28;20052;-60
2023/05/30 12:07:30;;;;;;;2.43;1.00;;;;;;;;;;5049912;28;20063;-60
2023/05/30 12:09:56;;;;;;;2.10;0.90;;;;;;;;;;5049425;28;20407;-60
2023/05/30 12:12:22;;;;;;;1.63;0.70;;;;;;;;;;5049325;28;20044;-60
2023/05/30 12:14:49;;;;;;;1.13;0.50;;;;;;;;;;5049587;28;20045;-60
2023/05/30 12:17:18;;;;;;;2.17;0.90;;;;;;;;;;5049368;28;20727;-60
2023/05/30 12:19:44;;;;;;;2.00;0.50;;;;;;;;;;5049556;28;20128;-60
2023/05/30 12:22:17;;;;;;;3.60;0.83;;;;;;;;;;5049645;28;20048;-60
2023/05/30 12:24:47;;;;;;;1.33;0.70;;;;;;;;;;5049125;28;20124;-60
2023/05/30 12:27:17;;;;;;;2.17;0.70;;;;;;;;;;5049173;28;20044;-60
2023/05/30 12:29:43;;;;;;;2.30;0.60;;;;;;;;;;5049220;28;20128;-60
2023/05/30 12:32:09;;;;;;;2.13;0.80;;;;;;;;;;5049240;28;20610;-60
2023/05/30 12:34:43;;;;;;;3.57;0.70;;;;;;;;;;5048972;28;20140;-60
2023/05/30 12:37:11;;;;;;;1.63;0.67;;;;;;;;;;5049171;28;20097;-60
2023/05/30 12:40:06;;;;;;;1.97;0.93;;;;;;;;;;5048536;28;20444;-60
2023/05/30 12:42:33;;;;;;;1.33;0.73;;;;;;;;;;5039946;28;20067;-60
2023/05/30 12:44:59;;;;;;;1.97;0.90;;;;;;;;;;5049115;28;20136;-60
2023/05/30 12:47:26;;;;;;;3.13;0.83;;;;;;;;;;5049237;28;20051;-60
2023/05/30 12:49:52;;;;;;;1.77;0.90;;;;;;;;;;5048265;28;20053;-60
2023/05/30 12:52:20;;;;;;;2.77;1.07;;;;;;;;;;5048695;28;20523;-60
2023/05/30 12:54:46;;;;;;;2.03;0.73;;;;;;;;;;5048833;28;20060;-60
2023/05/30 12:57:12;;;;;;;1.77;0.70;;;;;;;;;;5048795;28;20113;-60
2023/05/30 12:59:39;;;;;;;1.80;0.97;;;;;;;;;;5048243;28;20041;-60
2023/05/30 13:02:05;;;;;;;1.73;0.80;;;;;;;;;;5048883;28;20040;-60
2023/05/30 13:04:31;;;;;;;1.80;0.90;;;;;;;;;;5048648;28;20048;-60
2023/05/30 13:06:58;;;;;;;1.87;0.60;;;;;;;;;;5048504;28;20041;-60
2023/05/30 13:09:24;;;;;;;2.27;1.00;;;;;;;;;;5048599;28;20052;-60
2023/05/30 13:11:50;;;;;;;1.30;0.70;;;;;;;;;;5048234;28;20049;-60
2023/05/30 13:14:17;;;;;;;1.50;0.80;;;;;;;;;;5048143;28;20094;-60
2023/05/30 13:16:43;;;;;;;3.47;1.03;;;;;;;;;;5048492;28;20060;-60
2023/05/30 13:19:10;;;;;;;4.80;1.00;;;;;;;;;;5048393;28;20052;-60
2023/05/30 13:21:37;;;;;;;2.23;1.03;;;;;;;;;;5048202;28;20124;-60
2023/05/30 13:24:03;;;;;;;2.43;1.00;;;;;;;;;;5048324;28;20132;-60
2023/05/30 13:26:29;;;;;;;1.90;1.00;;;;;;;;;;5048138;28;20135;-60
2023/05/30 13:28:55;;;;;;;1.93;1.00;;;;;;;;;;5048079;28;20092;-60
2023/05/30 13:31:21;;;;;;;2.00;0.97;;;;;;;;;;5048210;28;20057;-60
2023/05/30 13:33:47;;;;;;;2.93;1.13;;;;;;;;;;5048318;28;20041;-60
2023/05/30 13:36:13;;;;;;;2.17;0.90;;;;;;;;;;5047778;28;20051;-60
2023/05/30 13:38:39;;;;;;;1.93;1.00;;;;;;;;;;5048223;28;20120;-60
2023/05/30 13:41:05;;;;;;;2.17;1.07;;;;;;;;;;5048350;28;20057;-60
2023/05/30 13:43:32;;;;;;;3.03;1.10;;;;;;;;;;5048191;28;20438;-60
2023/05/30 13:45:58;;;;;;;3.53;1.20;;;;;;;;;;5047412;28;20515;-60
2023/05/30 13:48:24;;;;;;;4.67;1.37;;;;;;;;;;5048359;28;20506;-60
2023/05/30 13:50:50;;;;;;;2.23;1.00;;;;;;;;;;5047825;28;20446;-60
2023/05/30 13:53:17;;;;;;;2.97;1.20;;;;;;;;;;5047701;28;20047;-60
2023/05/30 13:55:43;;;;;;;3.50;1.07;;;;;;;;;;5047962;28;20041;-60
2023/05/30 13:58:09;;;;;;;2.23;0.93;;;;;;;;;;5048096;28;20423;-60
2023/05/30 14:00:35;;;;;;;2.43;0.80;;;;;;;;;;5048359;28;20041;-60
2023/05/30 14:03:01;;;;;;;2.33;1.17;;;;;;;;;;5054098;28;20518;-60
2023/05/30 14:05:27;;;;;;;2.13;1.23;;;;;;;;;;5054107;28;20075;-60
2023/05/30 14:07:53;;;;;;;2.30;1.07;;;;;;;;;;5054441;28;20045;-60
2023/05/30 14:10:20;;;;;;;2.43;1.10;;;;;;;;;;5054082;28;20458;-60
2023/05/30 14:12:46;;;;;;;3.50;1.20;;;;;;;;;;5054083;28;20041;-60
2023/05/30 14:15:13;;;;;;;3.80;1.13;;;;;;;;;;5054393;28;20045;-60
2023/05/30 14:17:39;;;;;;;1.63;1.00;;;;;;;;;;5053553;28;20060;-60
2023/05/30 14:20:06;;;;;;;3.70;1.33;;;;;;;;;;5054172;28;20049;-60
2023/05/30 14:22:32;;;;;;;3.20;1.03;;;;;;;;;;5054196;28;20041;-60
2023/05/30 14:24:58;;;;;;;2.70;1.20;;;;;;;;;;5054207;28;20407;-60
2023/05/30 14:27:24;;;;;;;4.30;1.20;;;;;;;;;;5053288;28;20517;-60
2023/05/30 14:29:51;;;;;;;2.23;0.87;;;;;;;;;;5054048;28;20091;-60
2023/05/30 14:32:17;;;;;;;2.23;0.80;;;;;;;;;;5054206;28;20088;-60
2023/05/30 14:34:43;;;;;;;2.17;1.00;;;;;;;;;;5053800;28;20132;-60
2023/05/30 14:37:09;;;;;;;4.50;1.07;;;;;;;;;;5051885;28;20579;-60